Main page
METAR-TAF:

METAR-TAF

Airports :

Hawarden Airport

Hawarden, Wales

latitude: 53-10N, longitude: 002-59W, elevation: 10 m

Current weather observation

The report was made 24 minutes ago, at 05:20 UTC
Wind 3 kt from variable directions
Temperature 12°C
Humidity 94%
Pressure 1014 hPa
Visibility 10 km or more
Few clouds at a height of 3500 ft

METAR: EGNR 170520Z VRB03KT 9999 FEW035 12/11 Q1014

Time: 06:44 (05:44 UTC)

Forecast

The report was made 36 minutes ago, at 05:08 UTC
Forecast valid from 17 at 06 UTC to 17 at 15 UTC
Wind 6 kt from the West/Southwest
Visibility 10 km or more
Scattered clouds at a height of 3000 ft
Probability 30% :
Temporary
from 17 at 12 UTC to 17 at 15 UTC
Visibility: 8000 m
light rain showers

TAF: EGNR 170508Z 1706/1715 25006KT 9999 SCT030 PROB30 TEMPO 1712/1715 8000 -SHRA

Weather observations and forecasts of more than 4000 airports (METAR and TAF reports).

The available stations are represented by yellow and red dots on the map.

Hover mouse over dot to see the name of the station.

Then click to see weather observations and forecasts.

To change the map : click on the green buttons with a black cross to zoom in, on the green button with a dash to zoom out, or on the green arrows for adjacent maps.


METAR-TAF: